Time;durP1;ratioP1;P1;durP2;ratioP2;P2;SDS_P1;SDS_P2;PMS_P1;PMS_P2;Temp;Humidity;BMP_temperature;BMP_pressure;BME280_temperature;BME280_humidity;BME280_pressure;Samples;Min_cycle;Max_cycle;Signal;HPM_P1;HPM_P2
2021/09/24 00:00:57;;;;;;;1.23;1.13;;;12.40;99.90;;;;;;5067510;28;20036;-78
2021/09/24 00:03:24;;;;;;;0.65;0.65;;;12.40;99.90;;;;;;5050451;28;20474;-78
2021/09/24 00:05:50;;;;;;;8.88;1.25;;;12.40;99.90;;;;;;5051133;28;20520;-79
2021/09/24 00:08:16;;;;;;;;;;;12.50;99.90;;;;;;5065161;28;20115;-78
2021/09/24 00:10:42;;;;;;;10.20;1.35;;;12.50;99.90;;;;;;5067063;28;19975;-79
2021/09/24 00:13:08;;;;;;;7.80;2.05;;;12.50;99.90;;;;;;5064137;28;20494;-78
2021/09/24 00:15:34;;;;;;;1.38;0.77;;;12.60;99.90;;;;;;5035292;28;20131;-79
2021/09/24 00:18:00;;;;;;;4.55;1.58;;;12.70;99.90;;;;;;5064529;28;20120;-80
2021/09/24 00:20:25;;;;;;;0.45;0.45;;;12.80;99.90;;;;;;5037821;28;20441;-77
2021/09/24 00:22:51;;;;;;;4.85;1.02;;;12.90;99.90;;;;;;5066263;28;20052;-79
2021/09/24 00:25:17;;;;;;;0.98;0.95;;;12.90;99.90;;;;;;5054117;28;20054;-78
2021/09/24 00:27:43;;;;;;;12.18;1.73;;;12.90;99.90;;;;;;5001829;28;20033;-79
2021/09/24 00:30:10;;;;;;;6.03;1.02;;;13.00;99.90;;;;;;5044512;28;20055;-78
2021/09/24 00:32:36;;;;;;;2.55;1.10;;;13.00;99.90;;;;;;5018289;28;20091;-80
2021/09/24 00:35:02;;;;;;;3.83;1.75;;;13.00;99.90;;;;;;5053502;28;20517;-78
2021/09/24 00:37:28;;;;;;;2.85;1.65;;;13.10;99.90;;;;;;5081084;28;20127;-77
2021/09/24 00:39:53;;;;;;;2.55;1.20;;;13.10;99.90;;;;;;5058503;28;20056;-77
2021/09/24 00:42:19;;;;;;;1.15;1.02;;;13.20;99.90;;;;;;5060502;28;20483;-77
2021/09/24 00:44:48;;;;;;;1.00;0.70;;;13.20;99.90;;;;;;5069848;28;20045;-80
2021/09/24 00:47:15;;;;;;;0.70;0.70;;;13.20;99.90;;;;;;5060980;28;20043;-78
2021/09/24 00:49:41;;;;;;;0.52;0.52;;;13.20;99.90;;;;;;5059730;28;20386;-80
2021/09/24 00:52:07;;;;;;;0.85;0.80;;;13.20;99.90;;;;;;5066685;28;20041;-78
2021/09/24 00:54:33;;;;;;;8.45;1.33;;;13.30;99.90;;;;;;5067534;28;20040;-79
2021/09/24 00:57:03;;;;;;;0.65;0.65;;;13.30;99.90;;;;;;5047844;28;20501;-77
2021/09/24 00:59:29;;;;;;;4.40;1.63;;;13.30;99.90;;;;;;5059920;28;20098;-77
2021/09/24 01:01:55;;;;;;;0.40;0.40;;;13.30;99.90;;;;;;5062466;28;20048;-80
2021/09/24 01:04:22;;;;;;;1.58;1.05;;;13.30;99.90;;;;;;5067815;28;20047;-78
2021/09/24 01:06:49;;;;;;;3.03;1.00;;;13.30;99.90;;;;;;5062385;28;20049;-79
2021/09/24 01:09:15;;;;;;;0.90;0.70;;;13.30;99.90;;;;;;5064996;28;20115;-77
2021/09/24 01:11:41;;;;;;;4.32;0.80;;;13.30;99.90;;;;;;5037153;28;20119;-77
2021/09/24 01:14:06;;;;;;;3.72;1.20;;;13.30;99.90;;;;;;5043987;28;20040;-78
2021/09/24 01:16:32;;;;;;;0.70;0.70;;;13.30;99.90;;;;;;5039428;28;20090;-81
2021/09/24 01:18:58;;;;;;;6.00;1.77;;;13.40;99.90;;;;;;5028194;28;20039;-78
2021/09/24 01:21:24;;;;;;;1.20;0.82;;;13.40;99.90;;;;;;5062531;28;20084;-78
2021/09/24 01:23:50;;;;;;;0.73;0.73;;;13.40;99.90;;;;;;5053769;28;20043;-81
2021/09/24 01:26:16;;;;;;;3.40;1.10;;;13.40;99.90;;;;;;5055276;28;20105;-78
2021/09/24 01:28:45;;;;;;;6.35;0.82;;;13.40;99.90;;;;;;5068565;28;20478;-79
2021/09/24 01:31:12;;;;;;;3.05;1.13;;;13.50;99.90;;;;;;5062276;28;20048;-77
2021/09/24 01:33:46;;;;;;;3.33;1.02;;;13.50;99.90;;;;;;5043169;28;20383;-78
2021/09/24 01:36:12;;;;;;;1.05;0.70;;;13.60;99.90;;;;;;5062976;28;20393;-80
2021/09/24 01:38:38;;;;;;;2.08;1.02;;;13.60;99.90;;;;;;5060687;28;20115;-79
2021/09/24 01:41:05;;;;;;;3.92;0.90;;;13.60;99.90;;;;;;5070827;28;20367;-77
2021/09/24 01:43:32;;;;;;;2.70;0.45;;;13.60;99.90;;;;;;5049960;28;20037;-79
2021/09/24 01:45:58;;;;;;;0.30;0.30;;;13.70;99.90;;;;;;5048691;28;20463;-78
2021/09/24 01:48:24;;;;;;;4.10;0.77;;;13.70;99.90;;;;;;5061646;28;20041;-78
2021/09/24 01:50:50;;;;;;;;;;;13.70;99.90;;;;;;5062265;28;20041;-77
2021/09/24 01:53:15;;;;;;;2.72;1.17;;;13.70;99.90;;;;;;5040101;28;19927;-79
2021/09/24 01:55:41;;;;;;;0.85;0.85;;;13.70;99.90;;;;;;5063828;28;20045;-78
2021/09/24 01:58:07;;;;;;;;;;;13.70;99.90;;;;;;5059080;28;20048;-79
2021/09/24 02:00:33;;;;;;;1.88;0.70;;;13.70;99.90;;;;;;5059196;28;20021;-78
2021/09/24 02:02:58;;;;;;;3.95;0.93;;;13.70;99.90;;;;;;5060633;28;20115;-79
2021/09/24 02:05:24;;;;;;;;;;;13.70;99.90;;;;;;5039252;28;20094;-80
2021/09/24 02:07:50;;;;;;;3.83;0.95;;;13.70;99.90;;;;;;5059582;28;19917;-78
2021/09/24 02:10:15;;;;;;;;;;;13.70;99.90;;;;;;5060315;28;20106;-80
2021/09/24 02:12:41;;;;;;;2.72;1.33;;;13.70;99.90;;;;;;5024924;28;19916;-77
2021/09/24 02:15:08;;;;;;;5.07;2.08;;;13.70;99.90;;;;;;5056323;28;20123;-79
2021/09/24 02:17:34;;;;;;;8.55;1.95;;;13.80;99.90;;;;;;5066514;28;20044;-80
2021/09/24 02:19:59;;;;;;;4.95;1.65;;;13.80;99.90;;;;;;5071398;28;20047;-79
2021/09/24 02:22:25;;;;;;;1.77;0.73;;;13.80;99.90;;;;;;5063034;28;20041;-79
2021/09/24 02:24:51;;;;;;;1.00;0.90;;;13.80;99.90;;;;;;5045446;28;20379;-79
2021/09/24 02:27:17;;;;;;;3.95;1.83;;;13.80;99.90;;;;;;5075627;28;20494;-80
2021/09/24 02:29:42;;;;;;;6.70;0.88;;;13.90;99.90;;;;;;5062808;28;20036;-78
2021/09/24 02:32:08;;;;;;;1.38;1.27;;;13.90;99.90;;;;;;5046093;28;20041;-78
2021/09/24 02:34:34;;;;;;;1.10;0.93;;;13.90;99.90;;;;;;5061896;28;20056;-79
2021/09/24 02:37:00;;;;;;;9.05;2.15;;;13.90;99.90;;;;;;5053743;28;20044;-77
2021/09/24 02:39:26;;;;;;;4.68;1.10;;;14.00;99.90;;;;;;5056549;28;20078;-79
2021/09/24 02:41:51;;;;;;;6.20;1.63;;;14.00;99.90;;;;;;5037081;28;20040;-77
2021/09/24 02:44:17;;;;;;;1.30;0.98;;;14.00;99.90;;;;;;5060353;28;20049;-78
2021/09/24 02:46:43;;;;;;;6.40;1.48;;;14.10;99.90;;;;;;5054773;28;20040;-79
2021/09/24 02:49:09;;;;;;;0.70;0.70;;;14.10;99.90;;;;;;5038254;28;20074;-76
2021/09/24 02:51:34;;;;;;;9.95;1.33;;;14.10;99.90;;;;;;5011055;28;20045;-77
2021/09/24 02:54:00;;;;;;;;;;;14.10;99.90;;;;;;5069383;28;20116;-77
2021/09/24 02:56:26;;;;;;;5.75;1.55;;;14.10;99.90;;;;;;5059538;28;19916;-78
2021/09/24 02:58:51;;;;;;;;;;;14.10;99.90;;;;;;5054297;28;20084;-77
2021/09/24 03:01:17;;;;;;;18.35;0.93;;;14.00;99.90;;;;;;5060349;28;19934;-78
2021/09/24 03:03:43;;;;;;;0.95;0.65;;;14.00;99.90;;;;;;5046630;28;20072;-77
2021/09/24 03:06:09;;;;;;;3.80;1.55;;;14.00;99.90;;;;;;5046028;28;20498;-76
2021/09/24 03:08:34;;;;;;;;;;;14.00;99.90;;;;;;5072243;28;20044;-77
2021/09/24 03:11:00;;;;;;;2.30;1.45;;;14.00;99.90;;;;;;5069078;28;20344;-76
2021/09/24 03:13:26;;;;;;;1.65;1.13;;;13.90;99.90;;;;;;5041728;28;20041;-76
2021/09/24 03:15:53;;;;;;;3.28;0.90;;;13.90;99.90;;;;;;5043801;28;20098;-80
2021/09/24 03:18:20;;;;;;;4.88;1.50;;;13.90;99.90;;;;;;5057295;28;20102;-77
2021/09/24 03:20:45;;;;;;;2.75;1.38;;;13.90;99.90;;;;;;5053760;28;20059;-77
2021/09/24 03:23:11;;;;;;;1.25;0.82;;;13.90;99.90;;;;;;5058371;28;20036;-77
2021/09/24 03:25:37;;;;;;;1.95;1.17;;;13.90;99.90;;;;;;5072528;28;20052;-78
2021/09/24 03:28:03;;;;;;;1.95;0.65;;;13.90;99.90;;;;;;5055634;28;20033;-75
2021/09/24 03:30:28;;;;;;;;;;;13.90;99.90;;;;;;5050963;28;20113;-79
2021/09/24 03:32:54;;;;;;;0.70;0.70;;;13.90;99.90;;;;;;5026548;28;20320;-76
2021/09/24 03:35:20;;;;;;;3.08;0.88;;;13.90;99.90;;;;;;5056794;28;20048;-80
2021/09/24 03:37:46;;;;;;;0.77;0.73;;;13.90;99.90;;;;;;5065423;28;20390;-77
2021/09/24 03:40:12;;;;;;;6.47;1.13;;;13.90;99.90;;;;;;5048242;28;20048;-79
2021/09/24 03:42:38;;;;;;;0.73;0.73;;;13.90;99.90;;;;;;5070846;28;20040;-77
2021/09/24 03:45:05;;;;;;;1.73;1.63;;;13.90;99.90;;;;;;5057827;28;20044;-77
2021/09/24 03:47:31;;;;;;;1.10;0.80;;;13.90;99.90;;;;;;5071318;28;20064;-75
2021/09/24 03:49:56;;;;;;;1.58;1.38;;;13.90;99.90;;;;;;5069581;28;20040;-77
2021/09/24 03:52:22;;;;;;;3.30;0.75;;;13.90;99.90;;;;;;5063809;28;20480;-80
2021/09/24 03:54:48;;;;;;;0.98;0.80;;;13.90;99.90;;;;;;5068302;28;20086;-78
2021/09/24 03:57:13;;;;;;;2.83;0.75;;;13.90;99.90;;;;;;5057110;28;20041;-76
2021/09/24 03:59:39;;;;;;;1.38;0.95;;;13.90;99.90;;;;;;5057971;28;20051;-77
2021/09/24 04:02:04;;;;;;;;;;;13.90;99.90;;;;;;5063348;28;20118;-77
2021/09/24 04:04:30;;;;;;;1.65;1.00;;;13.90;99.90;;;;;;5068700;28;19921;-79
2021/09/24 04:06:56;;;;;;;2.33;1.25;;;13.90;99.90;;;;;;5039220;28;20075;-74
2021/09/24 04:09:21;;;;;;;2.05;0.80;;;13.90;99.90;;;;;;5052434;28;20037;-76
2021/09/24 04:11:47;;;;;;;0.73;0.73;;;13.90;99.90;;;;;;5027641;28;20099;-75
2021/09/24 04:14:13;;;;;;;;;;;13.90;99.90;;;;;;5075057;28;20086;-76
2021/09/24 04:16:38;;;;;;;1.38;1.00;;;14.00;99.90;;;;;;5063221;28;19917;-78
2021/09/24 04:19:04;;;;;;;1.15;0.90;;;14.00;99.90;;;;;;5063939;28;20079;-79
2021/09/24 04:21:30;;;;;;;0.80;0.75;;;14.00;99.90;;;;;;5069713;28;20409;-78
2021/09/24 04:23:55;;;;;;;;;;;14.00;99.90;;;;;;5063192;28;20037;-77
2021/09/24 04:26:21;;;;;;;1.50;1.40;;;14.00;99.90;;;;;;5053969;28;19969;-78
2021/09/24 04:28:47;;;;;;;11.07;1.70;;;14.00;99.90;;;;;;5052910;28;20498;-80
2021/09/24 04:31:12;;;;;;;2.35;1.27;;;14.00;99.90;;;;;;5069322;28;20052;-78
2021/09/24 04:33:38;;;;;;;;;;;14.00;99.90;;;;;;5048322;28;20032;-78
2021/09/24 04:36:04;;;;;;;3.35;1.50;;;14.00;99.90;;;;;;5071543;28;19920;-78
2021/09/24 04:38:30;;;;;;;1.70;1.25;;;14.00;99.90;;;;;;5069726;28;20119;-80
2021/09/24 04:40:55;;;;;;;;;;;14.10;99.90;;;;;;5063919;28;20048;-77
2021/09/24 04:43:21;;;;;;;4.30;1.60;;;14.20;99.90;;;;;;5056706;28;19917;-80
2021/09/24 04:45:46;;;;;;;0.95;0.88;;;14.20;99.90;;;;;;5035561;28;20589;-84
2021/09/24 04:48:12;;;;;;;;;;;14.20;99.90;;;;;;5070388;28;20032;-81
2021/09/24 04:50:38;;;;;;;2.45;1.23;;;14.20;99.90;;;;;;5057654;28;19956;-82
2021/09/24 04:53:04;;;;;;;1.00;0.80;;;14.20;99.90;;;;;;5068119;28;20383;-78
2021/09/24 04:55:30;;;;;;;2.72;1.02;;;14.20;99.90;;;;;;5070592;28;20044;-85
2021/09/24 04:57:56;;;;;;;2.03;1.08;;;14.20;99.90;;;;;;5072243;28;20097;-77
2021/09/24 05:00:21;;;;;;;0.85;0.80;;;14.20;99.90;;;;;;5054369;28;20474;-81
2021/09/24 05:02:47;;;;;;;1.45;1.35;;;14.20;99.90;;;;;;5051329;28;20052;-78
2021/09/24 05:05:13;;;;;;;2.28;0.93;;;14.20;99.90;;;;;;5053199;28;20040;-78
2021/09/24 05:07:38;;;;;;;;;;;14.20;99.90;;;;;;5054637;28;20040;-83
2021/09/24 05:10:05;;;;;;;4.60;0.90;;;14.20;99.90;;;;;;5053935;28;19921;-83
2021/09/24 05:12:31;;;;;;;3.08;1.17;;;14.20;99.90;;;;;;5071509;28;20044;-77
2021/09/24 05:14:58;;;;;;;5.03;2.03;;;14.30;99.90;;;;;;5054663;28;20040;-79
2021/09/24 05:17:24;;;;;;;1.35;1.00;;;14.30;99.90;;;;;;5069536;28;20367;-77
2021/09/24 05:19:51;;;;;;;2.83;1.30;;;14.20;99.90;;;;;;5060898;28;20097;-79
2021/09/24 05:22:16;;;;;;;2.83;1.77;;;14.20;99.90;;;;;;5055080;28;20083;-78
2021/09/24 05:24:42;;;;;;;3.10;1.35;;;14.30;99.90;;;;;;5061221;28;20033;-78
2021/09/24 05:27:08;;;;;;;0.95;0.95;;;14.20;99.90;;;;;;5067339;28;20550;-77
2021/09/24 05:29:34;;;;;;;;;;;14.20;99.90;;;;;;5065085;28;20036;-79
2021/09/24 05:31:59;;;;;;;1.08;0.85;;;14.20;99.90;;;;;;5064588;28;19917;-77
2021/09/24 05:34:25;;;;;;;1.60;1.20;;;14.30;99.90;;;;;;5061112;28;20060;-75
2021/09/24 05:36:51;;;;;;;2.60;1.55;;;14.30;99.90;;;;;;5070905;28;20094;-76
2021/09/24 05:39:18;;;;;;;1.45;1.35;;;14.30;99.90;;;;;;5062218;28;20127;-79
2021/09/24 05:41:44;;;;;;;1.30;1.00;;;14.30;99.90;;;;;;5060970;28;20048;-82
2021/09/24 05:44:10;;;;;;;;;;;14.40;99.90;;;;;;5061592;28;20100;-80
2021/09/24 05:46:36;;;;;;;0.77;0.77;;;14.40;99.90;;;;;;5044598;28;19923;-76
2021/09/24 05:49:01;;;;;;;;;;;14.40;99.90;;;;;;5070906;28;20044;-80
2021/09/24 05:51:27;;;;;;;1.40;1.30;;;14.40;99.90;;;;;;5052957;28;19963;-80
2021/09/24 05:53:53;;;;;;;3.17;1.13;;;14.40;99.90;;;;;;5045815;28;20098;-82
2021/09/24 05:56:18;;;;;;;1.42;1.25;;;14.40;99.90;;;;;;5041512;28;20397;-75
2021/09/24 05:58:44;;;;;;;;;;;14.50;99.90;;;;;;5065451;28;20032;-77
2021/09/24 06:01:10;;;;;;;4.50;1.63;;;14.50;99.90;;;;;;5046412;28;20427;-79
2021/09/24 06:03:36;;;;;;;;;;;14.50;99.90;;;;;;5047815;28;20051;-78
2021/09/24 06:06:02;;;;;;;5.03;1.95;;;14.60;99.90;;;;;;5060568;28;19928;-80
2021/09/24 06:08:28;;;;;;;12.05;1.25;;;14.60;99.90;;;;;;5057475;28;20036;-78
2021/09/24 06:10:58;;;;;;;1.45;1.35;;;14.70;99.90;;;;;;5052424;28;20044;-81
2021/09/24 06:13:23;;;;;;;1.60;1.23;;;14.70;99.90;;;;;;5073070;28;20036;-79
2021/09/24 06:15:49;;;;;;;1.75;1.60;;;14.70;99.90;;;;;;5059945;28;20189;-77
2021/09/24 06:18:15;;;;;;;;;;;14.70;99.90;;;;;;5059410;28;20052;-75
2021/09/24 06:20:42;;;;;;;3.58;1.63;;;14.80;99.90;;;;;;5052538;28;19920;-76
2021/09/24 06:23:08;;;;;;;1.00;0.88;;;14.80;99.90;;;;;;5052412;28;20044;-78
2021/09/24 06:25:34;;;;;;;2.67;1.50;;;14.80;99.90;;;;;;5055458;28;20039;-76
2021/09/24 06:28:00;;;;;;;3.75;2.28;;;14.80;99.90;;;;;;5056968;28;20480;-78
2021/09/24 06:30:26;;;;;;;2.70;1.80;;;14.90;99.90;;;;;;5068507;28;20040;-77
2021/09/24 06:32:53;;;;;;;0.95;0.85;;;14.90;99.90;;;;;;5058061;28;20119;-78
2021/09/24 06:35:20;;;;;;;3.90;1.70;;;14.90;99.90;;;;;;5066254;28;20052;-77
2021/09/24 06:37:46;;;;;;;1.27;1.13;;;14.90;99.90;;;;;;5050860;28;21110;-80
2021/09/24 06:40:13;;;;;;;6.22;1.70;;;14.90;99.90;;;;;;5067087;28;20036;-79
2021/09/24 06:42:40;;;;;;;3.47;2.05;;;15.00;99.90;;;;;;5055233;28;20097;-75
2021/09/24 06:45:08;;;;;;;1.88;1.60;;;15.00;99.90;;;;;;5061371;28;20041;-77
2021/09/24 06:47:34;;;;;;;4.38;1.73;;;15.00;99.90;;;;;;5067696;28;20120;-80
2021/09/24 06:50:00;;;;;;;3.35;1.85;;;15.00;99.90;;;;;;5058742;28;20075;-76
2021/09/24 06:52:26;;;;;;;7.60;1.63;;;15.10;99.90;;;;;;5051306;28;20411;-78
2021/09/24 06:54:52;;;;;;;;;;;15.10;99.90;;;;;;5064692;28;20440;-79
2021/09/24 06:57:18;;;;;;;2.17;1.98;;;15.20;99.90;;;;;;5051714;28;19939;-79
2021/09/24 06:59:44;;;;;;;3.53;1.67;;;15.20;99.90;;;;;;5074222;28;20489;-78
2021/09/24 07:02:10;;;;;;;6.65;2.42;;;15.20;99.90;;;;;;5064152;28;20040;-76
2021/09/24 07:04:35;;;;;;;;;;;15.30;99.90;;;;;;5057759;28;20044;-76
2021/09/24 07:07:01;;;;;;;1.42;1.17;;;15.30;99.90;;;;;;5068376;28;19916;-76
2021/09/24 07:09:26;;;;;;;2.75;2.13;;;15.30;99.90;;;;;;5064017;28;20069;-77
2021/09/24 07:11:52;;;;;;;;;;;15.40;99.90;;;;;;5047978;28;20059;-78
2021/09/24 07:14:19;;;;;;;7.20;1.75;;;15.40;99.90;;;;;;5058150;28;19999;-76
2021/09/24 07:16:47;;;;;;;2.30;1.65;;;15.40;99.90;;;;;;5041164;28;20040;-79
2021/09/24 07:19:13;;;;;;;9.60;1.73;;;15.50;99.90;;;;;;5060964;28;20066;-77
2021/09/24 07:21:38;;;;;;;;;;;15.50;99.90;;;;;;5057684;28;20033;-77
2021/09/24 07:24:05;;;;;;;5.95;1.73;;;15.50;99.90;;;;;;5070565;28;19924;-78
2021/09/24 07:26:31;;;;;;;2.85;1.60;;;15.60;99.90;;;;;;5063829;28;20444;-80
2021/09/24 07:28:57;;;;;;;;;;;15.60;99.90;;;;;;5068893;28;20072;-78
2021/09/24 07:31:23;;;;;;;4.90;2.13;;;15.60;99.90;;;;;;5058709;28;19947;-79
2021/09/24 07:33:50;;;;;;;4.88;1.90;;;15.70;99.90;;;;;;5058125;28;20517;-75
2021/09/24 07:36:16;;;;;;;7.63;1.80;;;15.70;99.90;;;;;;5088666;28;20478;-79
2021/09/24 07:38:47;;;;;;;2.35;1.63;;;15.70;99.90;;;;;;5065328;28;20387;-77
2021/09/24 07:41:15;;;;;;;9.25;2.00;;;15.70;99.90;;;;;;5067465;28;20044;-74
2021/09/24 07:43:49;;;;;;;3.78;2.35;;;15.80;99.90;;;;;;5070574;28;20394;-75
2021/09/24 07:46:15;;;;;;;7.30;2.28;;;15.80;99.90;;;;;;5047015;28;20040;-77
2021/09/24 07:48:42;;;;;;;3.70;2.03;;;15.80;99.90;;;;;;5040829;28;20382;-76
2021/09/24 07:51:12;;;;;;;4.28;1.95;;;15.90;99.90;;;;;;5063138;28;22083;-76
2021/09/24 07:53:38;;;;;;;1.35;1.25;;;15.90;99.90;;;;;;5061994;28;20048;-77
2021/09/24 07:56:05;;;;;;;;;;;15.90;99.90;;;;;;5061865;28;20544;-76
2021/09/24 07:58:30;;;;;;;;;;;16.00;99.90;;;;;;5066323;28;19920;-78
2021/09/24 08:00:56;;;;;;;2.33;1.73;;;16.00;99.90;;;;;;5055398;28;20317;-75
2021/09/24 08:03:22;;;;;;;;;;;16.10;99.90;;;;;;5061914;28;20046;-76
2021/09/24 08:05:47;;;;;;;3.72;2.40;;;16.10;99.90;;;;;;5029936;28;19924;-76
2021/09/24 08:08:13;;;;;;;;;;;16.10;99.90;;;;;;5070859;28;20040;-75
2021/09/24 08:10:39;;;;;;;3.72;1.45;;;16.10;99.90;;;;;;5059369;28;19923;-77
2021/09/24 08:13:04;;;;;;;;;;;16.10;99.90;;;;;;5056431;28;20093;-79
2021/09/24 08:15:32;;;;;;;5.65;2.10;;;16.20;99.90;;;;;;5042039;28;20384;-77
2021/09/24 08:17:58;;;;;;;4.55;1.95;;;16.20;99.90;;;;;;5057058;28;20045;-77
2021/09/24 08:20:23;;;;;;;;;;;16.20;99.90;;;;;;5022995;28;20088;-79
2021/09/24 08:22:49;;;;;;;3.75;2.63;;;16.30;99.90;;;;;;5044382;28;20104;-79
2021/09/24 08:25:17;;;;;;;3.20;1.50;;;16.30;99.90;;;;;;5056084;28;20037;-77
2021/09/24 08:27:44;;;;;;;3.45;2.45;;;16.30;99.90;;;;;;5038610;28;20044;-79
2021/09/24 08:30:13;;;;;;;3.05;2.17;;;16.40;99.90;;;;;;5056199;28;20563;-78
2021/09/24 08:32:39;;;;;;;7.25;2.30;;;16.40;99.90;;;;;;5055339;28;20421;-78
2021/09/24 08:35:07;;;;;;;3.60;1.77;;;16.40;99.90;;;;;;5058851;28;20391;-79
2021/09/24 08:37:33;;;;;;;2.45;1.75;;;16.40;99.90;;;;;;5059805;28;20076;-79
2021/09/24 08:39:59;;;;;;;1.40;1.27;;;16.40;99.90;;;;;;5070742;28;20071;-80
2021/09/24 08:42:26;;;;;;;;;;;16.50;99.90;;;;;;5044178;28;20083;-79
2021/09/24 08:44:52;;;;;;;1.92;1.45;;;16.50;99.90;;;;;;5046866;28;20011;-78
2021/09/24 08:47:18;;;;;;;3.47;1.77;;;16.60;99.90;;;;;;5041781;28;20123;-79
2021/09/24 08:49:45;;;;;;;4.53;2.60;;;16.60;99.90;;;;;;5060673;28;20501;-77
2021/09/24 08:52:12;;;;;;;1.85;1.42;;;16.70;99.90;;;;;;5051887;28;20493;-77
2021/09/24 08:54:38;;;;;;;4.45;1.95;;;16.70;99.90;;;;;;5061575;28;20075;-78
2021/09/24 08:57:05;;;;;;;3.70;2.33;;;16.70;99.90;;;;;;5072615;28;20355;-79
2021/09/24 08:59:31;;;;;;;3.03;2.15;;;16.80;99.90;;;;;;5062690;28;20069;-81
2021/09/24 09:02:06;;;;;;;6.93;2.50;;;16.90;99.90;;;;;;5071226;28;20695;-78
2021/09/24 09:04:44;;;;;;;12.15;2.55;;;16.90;99.90;;;;;;5072794;28;20123;-78
2021/09/24 09:07:12;;;;;;;2.95;2.15;;;16.90;99.90;;;;;;5073557;28;20049;-77
2021/09/24 09:09:44;;;;;;;4.03;2.47;;;17.00;99.90;;;;;;5053872;28;20040;-78
2021/09/24 09:12:15;;;;;;;3.45;2.10;;;17.00;99.90;;;;;;5041641;28;20046;-77
2021/09/24 09:14:42;;;;;;;8.27;2.85;;;17.00;99.90;;;;;;5068469;28;20040;-79
2021/09/24 09:17:34;;;;;;;9.00;2.28;;;17.10;99.90;;;;;;5061101;28;20044;-80
2021/09/24 09:20:13;;;;;;;3.50;2.38;;;17.10;99.90;;;;;;5049378;28;20122;-80
2021/09/24 09:22:41;;;;;;;3.22;2.15;;;17.10;99.90;;;;;;5044172;28;20032;-79
2021/09/24 09:25:20;;;;;;;3.72;2.50;;;17.10;99.90;;;;;;5042459;28;20090;-79
2021/09/24 09:27:47;;;;;;;2.33;1.67;;;17.20;99.90;;;;;;5062543;28;20109;-78
2021/09/24 09:30:14;;;;;;;4.05;2.35;;;17.30;99.90;;;;;;5060227;28;20045;-78
2021/09/24 09:32:41;;;;;;;3.17;2.22;;;17.30;99.90;;;;;;5069995;28;20079;-77
2021/09/24 09:35:08;;;;;;;5.00;2.13;;;17.40;99.90;;;;;;5072141;28;20065;-79
2021/09/24 09:37:35;;;;;;;5.80;2.50;;;17.40;99.90;;;;;;5044735;28;20071;-79
2021/09/24 09:40:05;;;;;;;3.55;2.35;;;17.40;99.90;;;;;;5075357;28;20037;-81
2021/09/24 09:42:33;;;;;;;2.95;1.75;;;17.50;99.90;;;;;;5061816;28;20041;-76
2021/09/24 09:44:59;;;;;;;4.60;2.58;;;17.50;99.90;;;;;;5037298;28;20044;-78
2021/09/24 09:47:33;;;;;;;2.85;1.85;;;17.50;99.90;;;;;;5058842;28;20486;-78
2021/09/24 09:50:13;;;;;;;2.90;1.92;;;17.50;99.90;;;;;;5054383;28;20047;-80
2021/09/24 09:53:03;;;;;;;6.47;1.42;;;17.60;99.90;;;;;;5046348;28;20498;-80
2021/09/24 09:55:33;;;;;;;3.70;1.75;;;17.70;99.90;;;;;;5054098;28;20041;-77
2021/09/24 09:58:02;;;;;;;5.25;2.95;;;17.80;99.90;;;;;;5033788;28;20045;-77
2021/09/24 10:00:31;;;;;;;3.15;2.10;;;17.90;99.90;;;;;;5046215;28;20474;-79
2021/09/24 10:03:11;;;;;;;9.77;2.80;;;18.00;99.90;;;;;;5070970;28;20052;-76
2021/09/24 10:05:39;;;;;;;8.60;2.53;;;18.10;99.90;;;;;;5070298;28;20715;-78
2021/09/24 10:08:23;;;;;;;8.45;1.60;;;18.10;99.90;;;;;;5045273;28;20045;-80
2021/09/24 10:11:05;;;;;;;4.00;1.73;;;18.10;99.90;;;;;;5051006;28;20478;-80
2021/09/24 10:13:49;;;;;;;2.88;2.05;;;18.20;99.90;;;;;;5065232;28;20087;-77
2021/09/24 10:16:28;;;;;;;2.67;1.73;;;18.30;99.90;;;;;;5056147;28;20052;-76
2021/09/24 10:18:58;;;;;;;9.65;2.83;;;18.40;99.90;;;;;;5076794;28;20124;-78
2021/09/24 10:21:41;;;;;;;2.30;1.50;;;18.50;99.90;;;;;;5042547;28;20401;-79
2021/09/24 10:24:10;;;;;;;3.70;2.00;;;18.60;99.90;;;;;;5085686;28;20036;-80
2021/09/24 10:26:41;;;;;;;;;;;18.60;99.90;;;;;;5052314;28;20051;-78
2021/09/24 10:29:46;;;;;;;1.85;1.10;;;18.70;99.90;;;;;;5092623;28;19920;-80
2021/09/24 10:32:27;;;;;;;2.53;1.10;;;18.70;99.90;;;;;;5050717;28;20071;-78
2021/09/24 10:35:00;;;;;;;1.65;1.27;;;18.80;99.90;;;;;;5051638;28;20096;-79
2021/09/24 10:37:28;;;;;;;2.00;1.33;;;18.80;99.90;;;;;;5062192;28;20111;-79
2021/09/24 10:39:59;;;;;;;4.50;1.55;;;18.90;99.90;;;;;;5047607;28;20048;-81
2021/09/24 10:42:36;;;;;;;2.70;2.05;;;19.00;99.90;;;;;;5039854;28;20520;-78
2021/09/24 10:45:11;;;;;;;4.28;1.75;;;19.00;99.90;;;;;;5052970;28;20120;-80
2021/09/24 10:47:57;;;;;;;1.63;1.35;;;19.00;99.90;;;;;;5066824;28;20049;-81
2021/09/24 10:50:52;;;;;;;4.88;2.03;;;19.00;99.90;;;;;;5070330;28;20041;-77
2021/09/24 10:53:42;;;;;;;2.33;1.95;;;19.10;99.90;;;;;;5044756;28;20048;-76
2021/09/24 10:56:08;;;;;;;3.03;1.77;;;19.10;99.90;;;;;;5036340;28;20055;-77
2021/09/24 10:58:47;;;;;;;1.60;1.48;;;19.20;99.90;;;;;;5032959;28;20533;-79
2021/09/24 11:01:50;;;;;;;2.38;1.50;;;19.30;99.90;;;;;;5041015;28;20046;-75
2021/09/24 11:04:19;;;;;;;1.88;1.50;;;19.40;99.90;;;;;;5077232;28;20052;-81
2021/09/24 11:06:52;;;;;;;3.38;2.30;;;19.40;99.90;;;;;;5048742;28;20038;-77
2021/09/24 11:09:21;;;;;;;4.07;1.75;;;19.50;99.90;;;;;;5063213;28;20041;-81
2021/09/24 11:11:50;;;;;;;2.78;1.50;;;19.40;99.90;;;;;;5057099;28;20041;-82
2021/09/24 11:14:35;;;;;;;3.13;1.50;;;19.20;99.90;;;;;;5060217;28;20513;-80
2021/09/24 11:17:03;;;;;;;2.53;1.63;;;19.10;99.90;;;;;;5058707;28;20044;-78
2021/09/24 11:19:49;;;;;;;2.97;1.50;;;19.10;99.90;;;;;;5057115;28;20335;-80
2021/09/24 11:22:40;;;;;;;4.38;2.38;;;19.20;99.90;;;;;;5060732;28;20032;-77
2021/09/24 11:25:09;;;;;;;1.80;1.40;;;19.40;99.90;;;;;;5048791;28;20052;-80
2021/09/24 11:27:44;;;;;;;4.63;2.20;;;19.50;99.90;;;;;;5044883;28;20083;-78
2021/09/24 11:30:19;;;;;;;5.40;2.63;;;19.50;99.90;;;;;;5074927;28;20032;-79
2021/09/24 11:32:59;;;;;;;2.47;1.45;;;19.60;99.90;;;;;;5056612;28;20080;-82
2021/09/24 11:35:40;;;;;;;5.03;1.98;;;19.60;99.90;;;;;;5056422;28;20171;-80
2021/09/24 11:38:13;;;;;;;4.07;2.10;;;19.80;99.90;;;;;;5057736;28;20052;-77
2021/09/24 11:40:39;;;;;;;3.30;2.00;;;20.00;99.90;;;;;;5040330;28;20044;-80
2021/09/24 11:43:05;;;;;;;3.95;1.85;;;20.10;99.90;;;;;;5057361;28;20040;-82
2021/09/24 11:45:32;;;;;;;;;;;20.10;99.90;;;;;;5074374;28;20493;-85
2021/09/24 11:48:09;;;;;;;2.80;1.65;;;20.10;99.90;;;;;;5054561;28;20350;-81
2021/09/24 11:50:37;;;;;;;2.42;1.92;;;19.90;99.90;;;;;;5067806;28;20044;-80
2021/09/24 11:53:09;;;;;;;4.35;2.65;;;19.90;99.90;;;;;;5052008;28;20105;-76
2021/09/24 11:55:37;;;;;;;7.28;1.88;;;20.00;99.90;;;;;;5044443;28;20047;-81
2021/09/24 11:58:18;;;;;;;2.42;1.75;;;20.10;99.90;;;;;;5054788;28;20449;-81
2021/09/24 12:00:45;;;;;;;9.02;2.20;;;20.30;99.90;;;;;;5069361;28;20497;-80
2021/09/24 12:03:30;;;;;;;3.83;1.88;;;20.50;99.90;;;;;;5057112;28;20554;-80
2021/09/24 12:06:10;;;;;;;2.42;1.45;;;20.60;99.90;;;;;;5054613;28;20041;-79
2021/09/24 12:08:45;;;;;;;2.58;1.75;;;20.70;99.90;;;;;;5053702;28;20076;-76
2021/09/24 12:11:22;;;;;;;2.40;1.27;;;20.70;99.90;;;;;;5060435;28;20040;-80
2021/09/24 12:14:01;;;;;;;1.15;1.05;;;20.60;99.90;;;;;;5055317;28;20375;-78
2021/09/24 12:16:39;;;;;;;3.28;1.80;;;20.50;99.90;;;;;;5043780;28;20036;-81
2021/09/24 12:19:16;;;;;;;5.07;1.45;;;20.30;99.90;;;;;;5066614;28;20045;-85
2021/09/24 12:21:46;;;;;;;4.50;1.50;;;20.30;99.90;;;;;;5019451;28;20040;-76
2021/09/24 12:24:21;;;;;;;3.42;1.77;;;20.30;99.90;;;;;;5050667;28;20052;-77
2021/09/24 12:27:02;;;;;;;3.05;2.05;;;20.50;99.90;;;;;;5055727;28;20044;-78
2021/09/24 12:29:28;;;;;;;1.25;1.05;;;20.50;99.90;;;;;;5056479;28;20036;-77
2021/09/24 12:32:02;;;;;;;2.00;1.27;;;20.50;99.90;;;;;;5038987;28;20039;-78
2021/09/24 12:35:06;;;;;;;1.55;1.30;;;20.50;99.90;;;;;;5054298;28;20040;-76
2021/09/24 12:37:46;;;;;;;5.22;1.48;;;20.60;99.90;;;;;;5029680;28;20036;-79
2021/09/24 12:40:19;;;;;;;5.97;1.67;;;20.60;99.90;;;;;;5044095;28;20127;-76
2021/09/24 12:42:55;;;;;;;2.95;1.52;;;20.70;99.90;;;;;;5055309;28;20041;-80
2021/09/24 12:45:25;;;;;;;3.25;1.48;;;20.90;99.90;;;;;;5058213;28;20068;-80
2021/09/24 12:47:51;;;;;;;2.40;1.70;;;21.10;99.90;;;;;;5066234;28;20393;-76
2021/09/24 12:50:19;;;;;;;2.95;1.70;;;21.20;99.90;;;;;;5065970;28;20052;-76
2021/09/24 12:52:45;;;;;;;1.80;1.13;;;21.00;99.90;;;;;;5026862;28;20033;-80
2021/09/24 12:55:12;;;;;;;1.95;1.52;;;20.70;99.90;;;;;;5037353;28;20164;-78
2021/09/24 12:57:39;;;;;;;4.68;1.50;;;20.60;99.90;;;;;;5058766;28;20047;-77
2021/09/24 13:00:10;;;;;;;2.00;1.50;;;20.50;99.90;;;;;;5060970;28;20044;-76
2021/09/24 13:02:37;;;;;;;3.30;1.42;;;20.50;99.90;;;;;;5051158;28;20048;-77